EDT,Max TemperatureF,Mean TemperatureF,Min TemperatureF,Max Dew PointF,MeanDew PointF,Min DewpointF,Max Humidity, Mean Humidity, Min Humidity, Max Sea Level PressureIn, Mean Sea Level PressureIn, Min Sea Level PressureIn, Max VisibilityMiles, Mean VisibilityMiles, Min VisibilityMiles, Max Wind SpeedMPH, Mean Wind SpeedMPH, Max Gust SpeedMPH,PrecipitationIn, CloudCover, Events, WindDirDegrees
2013-9-1,75,68,60,62,58,53,100,83,50,30.03,29.88,29.78,10,9,2,14,7,18,0.01,5,Rain,355
2013-9-2,60,56,52,56,53,50,100,92,78,30.07,29.99,29.86,10,7,2,20,11,29,0.87,7,Rain,86
2013-9-3,70,61,52,63,58,51,100,92,75,29.83,29.73,29.66,10,6,0,12,4,21,0.15,8,Fog-Rain,144
2013-9-4,71,57,43,57,51,38,94,77,55,29.85,29.69,29.62,10,10,10,26,9,33,0.00,5,,243
2013-9-5,58,49,39,41,36,30,93,66,39,30.05,29.94,29.85,10,10,10,20,9,24,0.00,4,,297
2013-9-6,65,50,35,42,37,34,93,61,34,30.07,29.99,29.86,10,10,10,17,8,24,0.00,1,,241
2013-9-7,67,59,50,57,52,42,100,81,63,29.86,29.74,29.67,10,8,0,18,8,26,0.10,7,Fog-Rain,240
2013-9-8,58,50,41,56,45,36,96,80,49,29.92,29.73,29.65,10,10,9,31,14,39,0.01,6,Rain,316
2013-9-9,66,52,37,42,38,35,89,61,34,30.04,29.97,29.89,10,10,10,22,11,31,0.00,1,,253
2013-9-10,69,61,52,55,50,43,100,77,58,30.06,30.02,29.96,10,9,2,13,6,18,0.05,6,Rain,172
2013-9-11,75,66,57,70,62,55,100,96,76,30.01,29.89,29.81,10,4,0,15,6,22,0.56,6,Fog-Rain-Thunderstorm,175
2013-9-12,67,64,60,66,63,59,100,98,93,29.87,29.77,29.56,10,3,0,10,5,15,0.46,7,Fog-Rain,156
2013-9-13,64,59,53,63,57,50,100,91,78,29.74,29.63,29.55,10,7,0,20,9,26,0.18,7,Fog-Rain,304
2013-9-14,53,49,44,52,47,43,100,93,86,29.94,29.83,29.72,10,8,2,17,8,23,0.21,8,Rain,331
2013-9-15,63,54,45,50,47,43,100,83,52,29.98,29.93,29.87,10,9,1,17,8,24,0.02,5,,233
2013-9-16,54,45,36,52,39,30,100,80,54,30.19,30.00,29.87,10,10,6,23,12,29,0.12,6,Rain,323
2013-9-17,61,47,33,40,36,32,92,67,39,30.32,30.23,30.15,10,10,10,18,9,23,0.00,0,,281
2013-9-18,69,56,42,44,40,36,89,63,33,30.14,30.06,29.99,10,10,10,17,7,23,0.00,0,,251
2013-9-19,72,59,46,49,46,42,86,66,36,30.03,30.00,29.95,10,10,10,16,6,20,0.00,2,,285
2013-9-20,63,58,52,56,53,49,94,85,69,30.09,30.05,30.00,10,10,10,17,6,23,0.00,8,,139
2013-9-21,71,62,53,56,50,43,96,74,36,30.00,29.81,29.68,10,10,7,23,15,32,0.00,4,,165
2013-9-22,65,56,46,61,56,43,100,91,77,29.69,29.58,29.51,10,7,1,25,11,33,0.62,8,Rain,204
2013-9-23,46,44,42,43,41,39,97,90,82,29.78,29.73,29.67,10,9,4,25,15,33,0.40,8,Rain,317
2013-9-24,51,46,41,45,42,39,96,88,74,29.84,29.76,29.70,10,9,2,23,15,31,0.14,8,Rain,334
2013-9-25,54,49,43,45,43,41,93,84,69,29.97,29.89,29.82,10,10,10,22,14,26,T,7,Rain,344
2013-9-26,58,52,46,49,46,43,93,84,69,30.15,30.07,29.98,10,10,10,16,9,21,0.00,7,,345
2013-9-27,68,57,45,49,46,44,97,73,45,30.25,30.21,30.16,10,10,9,18,8,22,0.00,1,,335
2013-9-28,73,58,43,51,46,42,100,79,44,30.32,30.27,30.19,10,7,0,12,4,17,0.00,0,Fog,268
2013-9-29,74,60,46,52,48,45,100,77,37,30.19,30.14,30.05,10,8,0,12,5,16,0.00,1,Fog,188
2013-9-30,69,57,45,50,47,44,100,80,42,30.08,30.04,29.98,10,6,0,9,2,12,0.00,1,Fog,138